Buffalo, Nebraska
Current Conditions -  °F | °C
As of 12:53 AM on Tuesday 21 Oct 2014 (Local Time) from KHSI Reporting Station
Clear Clear  
Wind Chill: 55°   Ceiling: Unl
Heat Index: 55°   Visibility: 10mi
Dew Point: 39°   Wind: 5mph
Humidity: 55%   Direction: 170°S
Pressure: 30.06"   Gusts: NA
Location:  40.3066°N, 98.7833°W
Report Text: KHSI 210553Z AUTO 17004KT 10SM CLR 13/04 A3006 RMK AO2 SLP173 T01280039 10189 20111 402330050 58002
Loading
Personal Weather Stations






























Interactive Weather Map
Tropical Storm Tracking
New forecast layout! Learn more

10-Day Weather Forecast

Advertisements
Track Severe Weather on mobile